Terminal Aerodrome Forecast
Issued by NWS

Home | Current Version | Previous Version | Text Only | Print | Product List | Glossary On
Versions: 1 2 3 4 5 6 7 8 9 10 11 12 13 14 15 16 17 18 19 20 21 22 23 24
202
FTUS45 KCYS 141720
TAFAIA
TAF
KAIA 141720Z 1418/1518 34022G35KT P6SM VCSH BKN050 BKN100
     FM150000 32010KT P6SM SCT200=

USA.gov is the U.S. government's official web portal to all federal, state and local government web resources and services.